Time;durP1;ratioP1;P1;durP2;ratioP2;P2;SDS_P1;SDS_P2;PMS_P1;PMS_P2;Temp;Humidity;BMP_temperature;BMP_pressure;BME280_temperature;BME280_humidity;BME280_pressure;Samples;Min_cycle;Max_cycle;Signal;HPM_P1;HPM_P2
2022/04/18 00:00:18;;;;;;;;;;;;;;;22.75;27.25;101501.84;7279592;19;153610;-65
2022/04/18 00:02:45;;;;;;;;;;;;;;;22.74;26.98;101499.31;7276356;19;153968;-64
2022/04/18 00:05:12;;;;;;;;;;;;;;;22.75;27.08;101501.84;7279691;19;151987;-63
2022/04/18 00:07:39;;;;;;;;;;;;;;;22.68;26.99;101501.38;7285980;19;153084;-63
2022/04/18 00:10:06;;;;;;;;;;;;;;;22.67;27.00;101501.69;7283859;19;153521;-64
2022/04/18 00:12:33;;;;;;;;;;;;;;;22.66;26.93;101497.19;7285356;19;152781;-61
2022/04/18 00:15:00;;;;;;;;;;;;;;;22.61;27.35;101500.94;7283132;19;154706;-64
2022/04/18 00:17:27;;;;;;;;;;;;;;;22.59;27.35;101500.41;7286754;19;151909;-65
2022/04/18 00:19:55;;;;;;;;;;;;;;;22.58;27.41;101502.38;7281504;19;153500;-62
2022/04/18 00:22:23;;;;;;;;;;;;;;;22.53;27.06;101508.09;7281290;19;153669;-68
2022/04/18 00:24:50;;;;;;;;;;;;;;;22.53;27.40;101505.28;7285120;19;152177;-61
2022/04/18 00:27:17;;;;;;;;;;;;;;;22.54;27.29;101504.16;7285956;19;152689;-63
2022/04/18 00:29:44;;;;;;;;;;;;;;;22.49;27.51;101501.41;7292276;19;154339;-67
2022/04/18 00:32:11;;;;;;;;;;;;;;;22.49;27.43;101495.78;7280771;19;153415;-65
2022/04/18 00:34:38;;;;;;;;;;;;;;;22.45;27.51;101497.53;7285057;19;155446;-67
2022/04/18 00:37:05;;;;;;;;;;;;;;;22.42;27.17;101486.06;7285721;19;151594;-63
2022/04/18 00:39:31;;;;;;;;;;;;;;;22.40;27.30;101491.16;7283901;19;152790;-62
2022/04/18 00:41:58;;;;;;;;;;;;;;;22.40;27.48;101489.19;7284308;19;154172;-63
2022/04/18 00:44:25;;;;;;;;;;;;;;;22.33;27.29;101491.56;7285461;19;152743;-65
2022/04/18 00:46:52;;;;;;;;;;;;;;;22.33;27.70;101488.75;7285269;19;152504;-61
2022/04/18 00:49:18;;;;;;;;;;;;;;;22.31;27.44;101485.41;7281841;19;154774;-65
2022/04/18 00:51:45;;;;;;;;;;;;;;;22.28;27.35;101491.66;7288523;19;152118;-61
2022/04/18 00:54:12;;;;;;;;;;;;;;;22.25;27.62;101483.84;7284037;19;153632;-63
2022/04/18 00:56:40;;;;;;;;;;;;;;;22.24;27.97;101484.97;7284832;19;151850;-63
2022/04/18 00:59:08;;;;;;;;;;;;;;;22.22;27.76;101490.06;7285060;19;153200;-64
2022/04/18 01:01:36;;;;;;;;;;;;;;;22.16;27.99;101492.16;7283117;19;153157;-67
2022/04/18 01:04:03;;;;;;;;;;;;;;;22.14;27.93;101485.97;7285154;19;152616;-66
2022/04/18 01:06:30;;;;;;;;;;;;;;;22.18;28.17;101486.19;7284170;19;152830;-63
2022/04/18 01:08:57;;;;;;;;;;;;;;;22.15;27.82;101481.19;7280546;19;153369;-61
2022/04/18 01:11:24;;;;;;;;;;;;;;;22.12;28.20;101484.63;7283279;19;152037;-65
2022/04/18 01:13:51;;;;;;;;;;;;;;;22.07;28.35;101487.50;7287749;19;152657;-63
2022/04/18 01:16:18;;;;;;;;;;;;;;;22.05;28.15;101489.78;7284137;19;151994;-66
2022/04/18 01:18:49;;;;;;;;;;;;;;;22.03;28.11;101486.47;7284376;19;152539;-65
2022/04/18 01:21:16;;;;;;;;;;;;;;;22.00;28.45;101470.16;7275566;19;154311;-60
2022/04/18 01:23:43;;;;;;;;;;;;;;;21.96;28.26;101481.19;7284951;19;151963;-61
2022/04/18 01:28:58;;;;;;;;;;;;;;;21.93;28.51;101486.59;7282274;19;154671;-67
2022/04/18 01:31:26;;;;;;;;;;;;;;;21.92;28.61;101482.09;7282680;19;152294;-65
2022/04/18 01:33:53;;;;;;;;;;;;;;;21.92;29.07;101470.81;7283420;19;152513;-63
2022/04/18 01:36:20;;;;;;;;;;;;;;;21.91;29.10;101480.41;7289658;19;153307;-63
2022/04/18 01:38:47;;;;;;;;;;;;;;;21.89;29.21;101477.06;7281674;19;153880;-64
2022/04/18 01:41:14;;;;;;;;;;;;;;;21.84;28.95;101472.38;7277357;19;153550;-63
2022/04/18 01:43:40;;;;;;;;;;;;;;;21.82;29.04;101474.63;7279536;19;151971;-64
2022/04/18 01:46:08;;;;;;;;;;;;;;;21.81;29.25;101466.47;7283596;19;152950;-62
2022/04/18 01:48:36;;;;;;;;;;;;;;;21.77;29.64;101456.97;7279881;19;152474;-62
2022/04/18 01:51:04;;;;;;;;;;;;;;;21.76;29.28;101463.78;7278159;19;152413;-65
2022/04/18 01:53:31;;;;;;;;;;;;;;;21.74;29.39;101461.25;7281356;19;153899;-61
2022/04/18 01:55:59;;;;;;;;;;;;;;;21.72;29.48;101458.72;7281080;19;153055;-66
2022/04/18 01:58:26;;;;;;;;;;;;;;;21.74;29.79;101467.72;7288455;19;152104;-66
2022/04/18 02:00:53;;;;;;;;;;;;;;;21.70;29.69;101455.41;7281466;19;154394;-63
2022/04/18 02:03:21;;;;;;;;;;;;;;;21.65;30.20;101452.66;7283472;19;152333;-60
2022/04/18 02:05:52;;;;;;;;;;;;;;;21.65;30.17;101457.44;7283695;19;152692;-64
2022/04/18 02:08:19;;;;;;;;;;;;;;;21.65;30.36;101449.03;7280537;19;153786;-65
2022/04/18 02:10:47;;;;;;;;;;;;;;;21.61;30.20;101448.78;7280719;19;152227;-63
2022/04/18 02:13:14;;;;;;;;;;;;;;;21.61;30.15;101442.34;7282216;19;152604;-63
2022/04/18 02:15:42;;;;;;;;;;;;;;;21.61;30.06;101445.16;7281077;19;153633;-65
2022/04/18 02:18:09;;;;;;;;;;;;;;;21.58;30.17;101443.75;7291110;19;152997;-65
2022/04/18 02:20:36;;;;;;;;;;;;;;;21.60;30.24;101447.13;7281968;19;153156;-63
2022/04/18 02:23:03;;;;;;;;;;;;;;;21.56;30.34;101446.06;7282448;19;152128;-60
2022/04/18 02:25:30;;;;;;;;;;;;;;;21.52;30.84;101445.00;7283648;19;152869;-63
2022/04/18 02:27:57;;;;;;;;;;;;;;;21.50;30.68;101438.81;7279201;19;154148;-66
2022/04/18 02:30:24;;;;;;;;;;;;;;;21.50;30.90;101449.22;7280682;19;152314;-68
2022/04/18 02:32:51;;;;;;;;;;;;;;;21.47;31.09;101445.06;7275113;19;153359;-66
2022/04/18 02:35:24;;;;;;;;;;;;;;;21.47;30.96;101447.03;7282026;19;153291;-63
2022/04/18 02:37:52;;;;;;;;;;;;;;;21.45;31.03;101441.69;7283756;19;152122;-66
2022/04/18 02:40:19;;;;;;;;;;;;;;;21.42;30.86;101445.13;7286699;19;153325;-66
2022/04/18 02:42:46;;;;;;;;;;;;;;;21.42;31.22;101441.47;7281935;19;151944;-61
2022/04/18 02:45:14;;;;;;;;;;;;;;;21.40;31.12;101435.31;7282484;19;154789;-62
2022/04/18 02:47:41;;;;;;;;;;;;;;;21.39;30.97;101430.84;7280322;19;153469;-65
2022/04/18 02:50:09;;;;;;;;;;;;;;;21.37;31.45;101436.75;7282032;19;151852;-64
2022/04/18 02:52:35;;;;;;;;;;;;;;;21.35;31.51;101444.66;7276780;19;153006;-60
2022/04/18 02:55:03;;;;;;;;;;;;;;;21.36;31.41;101437.06;7281457;19;153282;-64
2022/04/18 02:57:30;;;;;;;;;;;;;;;21.33;31.29;101435.69;7279411;19;152057;-61
2022/04/18 02:59:56;;;;;;;;;;;;;;;21.29;31.79;101429.00;7281939;19;153427;-63
2022/04/18 03:02:23;;;;;;;;;;;;;;;21.32;31.42;101430.38;7287458;19;153972;-65
2022/04/18 03:04:50;;;;;;;;;;;;;;;21.26;31.66;101433.25;7282122;19;154266;-65
2022/04/18 03:07:19;;;;;;;;;;;;;;;21.22;31.98;101423.75;7280507;19;155428;-68
2022/04/18 03:09:46;;;;;;;;;;;;;;;21.21;31.70;101427.69;7280037;19;152254;-65
2022/04/18 03:12:13;;;;;;;;;;;;;;;21.26;32.02;101432.41;7278501;19;152186;-66
2022/04/18 03:14:40;;;;;;;;;;;;;;;21.19;32.09;101426.34;7278571;19;153947;-63
2022/04/18 03:17:07;;;;;;;;;;;;;;;21.16;31.89;101427.78;7281370;19;151889;-62
2022/04/18 03:19:34;;;;;;;;;;;;;;;21.17;32.30;101431.41;7280373;19;152456;-65
2022/04/18 03:22:00;;;;;;;;;;;;;;;21.10;32.28;101428.09;7280553;19;153278;-66
2022/04/18 03:24:27;;;;;;;;;;;;;;;21.11;32.19;101436.25;7288535;19;151692;-64
2022/04/18 03:26:54;;;;;;;;;;;;;;;21.11;32.12;101441.88;7280894;19;153236;-64
2022/04/18 03:29:21;;;;;;;;;;;;;;;21.09;32.56;101444.13;7281113;19;152226;-64
2022/04/18 03:31:49;;;;;;;;;;;;;;;21.08;32.18;101438.78;7276852;19;154063;-65
2022/04/18 03:34:16;;;;;;;;;;;;;;;21.06;32.59;101441.94;7279967;19;153999;-64
2022/04/18 03:42:13;;;;;;;;;;;;;;;21.05;32.81;101445.03;7279804;19;152319;-62
2022/04/18 03:44:44;;;;;;;;;;;;;;;20.96;32.60;101433.63;7283378;19;152505;-65
2022/04/18 03:47:11;;;;;;;;;;;;;;;20.96;32.74;101444.00;7293590;19;153765;-63
2022/04/18 03:49:38;;;;;;;;;;;;;;;20.98;33.04;101438.94;7285153;19;153331;-67
2022/04/18 03:52:06;;;;;;;;;;;;;;;20.98;32.97;101442.59;7284689;19;152707;-63
2022/04/18 03:54:34;;;;;;;;;;;;;;;20.92;33.13;101437.31;7280947;19;155464;-65
2022/04/18 03:57:02;;;;;;;;;;;;;;;20.91;33.25;101436.47;7284417;19;152270;-62
2022/04/18 03:59:29;;;;;;;;;;;;;;;20.88;33.33;101444.69;7283664;19;153439;-66
2022/04/18 04:01:56;;;;;;;;;;;;;;;20.88;33.10;101442.72;7284190;19;154164;-64
2022/04/18 04:04:23;;;;;;;;;;;;;;;20.89;33.08;101449.16;7286471;19;151784;-66
2022/04/18 04:06:49;;;;;;;;;;;;;;;20.90;33.08;101433.97;7283354;19;152628;-67
2022/04/18 04:09:16;;;;;;;;;;;;;;;20.85;33.57;101440.47;7291485;19;151994;-64
2022/04/18 04:11:43;;;;;;;;;;;;;;;20.85;33.40;101441.31;7284342;19;153639;-66
2022/04/18 04:14:10;;;;;;;;;;;;;;;20.93;33.42;101448.28;7279334;19;153213;-61
2022/04/18 04:16:39;;;;;;;;;;;;;;;21.04;33.61;101440.53;7285946;19;151995;-63
2022/04/18 04:19:06;;;;;;;;;;;;;;;21.05;33.35;101440.25;7287675;19;152932;-67
2022/04/18 04:21:33;;;;;;;;;;;;;;;21.08;33.85;101445.25;7285946;19;152718;-66
2022/04/18 04:24:01;;;;;;;;;;;;;;;21.07;33.50;101437.16;7286305;19;152090;-67
2022/04/18 04:26:27;;;;;;;;;;;;;;;21.13;33.47;101439.59;7286133;19;153431;-64
2022/04/18 04:28:54;;;;;;;;;;;;;;;21.18;33.31;101433.09;7293369;19;154367;-69
2022/04/18 04:31:21;;;;;;;;;;;;;;;21.23;33.44;101430.22;7285398;19;152947;-63
2022/04/18 04:33:48;;;;;;;;;;;;;;;21.33;33.23;101441.31;7282935;19;153994;-65
2022/04/18 04:36:17;;;;;;;;;;;;;;;21.38;33.43;101431.97;7286076;19;151596;-64
2022/04/18 04:38:44;;;;;;;;;;;;;;;21.46;33.30;101437.75;7285593;19;153530;-62
2022/04/18 04:41:11;;;;;;;;;;;;;;;21.50;33.22;101441.63;7284461;19;153324;-68
2022/04/18 04:43:38;;;;;;;;;;;;;;;21.54;33.48;101439.03;7283433;19;151877;-65
2022/04/18 04:46:05;;;;;;;;;;;;;;;21.56;33.50;101437.63;7283792;19;153958;-63
2022/04/18 04:48:32;;;;;;;;;;;;;;;21.57;33.14;101439.31;7283776;19;154579;-64
2022/04/18 04:50:59;;;;;;;;;;;;;;;21.61;33.13;101434.75;7290821;19;151976;-68
2022/04/18 04:53:26;;;;;;;;;;;;;;;21.62;33.33;101446.81;7279548;19;153273;-64
2022/04/18 04:55:53;;;;;;;;;;;;;;;21.62;33.56;101452.44;7279320;19;151970;-62
2022/04/18 04:58:20;;;;;;;;;;;;;;;21.67;33.43;101446.72;7283981;19;152877;-61
2022/04/18 05:00:46;;;;;;;;;;;;;;;21.74;33.55;101459.28;7282422;19;154124;-65
2022/04/18 05:03:13;;;;;;;;;;;;;;;21.70;33.56;101446.97;7278259;19;152255;-66
2022/04/18 05:05:41;;;;;;;;;;;;;;;21.73;33.73;101454.78;7280143;19;153911;-63
2022/04/18 05:08:08;;;;;;;;;;;;;;;21.77;33.60;101449.38;7283059;19;152048;-69
2022/04/18 05:10:40;;;;;;;;;;;;;;;21.80;33.60;101453.59;7283929;19;152246;-61
2022/04/18 05:13:07;;;;;;;;;;;;;;;21.82;33.75;101459.72;7288050;19;152639;-62
2022/04/18 05:15:34;;;;;;;;;;;;;;;21.88;33.28;101452.88;7280332;19;152265;-66
2022/04/18 05:18:02;;;;;;;;;;;;;;;21.94;33.44;101462.97;7282713;19;152937;-65
2022/04/18 05:20:28;;;;;;;;;;;;;;;21.95;33.69;101461.78;7283545;19;153254;-64
2022/04/18 05:22:55;;;;;;;;;;;;;;;21.99;33.60;101462.84;7284540;19;152367;-63
2022/04/18 05:25:22;;;;;;;;;;;;;;;22.03;33.38;101458.31;7283843;19;153094;-64
2022/04/18 05:27:49;;;;;;;;;;;;;;;22.06;33.24;101457.69;7282214;19;154078;-66
2022/04/18 05:30:16;;;;;;;;;;;;;;;22.09;33.59;101460.72;7283842;19;152026;-65
2022/04/18 05:32:45;;;;;;;;;;;;;;;22.14;33.64;101459.81;7282641;19;153331;-61
2022/04/18 05:35:12;;;;;;;;;;;;;;;22.18;33.17;101458.03;7288769;19;153221;-64
2022/04/18 05:37:39;;;;;;;;;;;;;;;22.23;33.21;101462.75;7283972;19;155346;-67
2022/04/18 05:40:07;;;;;;;;;;;;;;;22.24;33.47;101464.44;7283053;19;154294;-64
2022/04/18 05:42:33;;;;;;;;;;;;;;;22.23;33.69;101466.41;7284315;19;151802;-61
2022/04/18 05:45:00;;;;;;;;;;;;;;;22.24;33.47;101476.53;7283545;19;152560;-65
2022/04/18 05:47:27;;;;;;;;;;;;;;;22.28;33.69;101474.75;7283227;19;153201;-64
2022/04/18 05:49:54;;;;;;;;;;;;;;;22.31;33.38;101479.78;7284095;19;152534;-64
2022/04/18 05:52:20;;;;;;;;;;;;;;;22.32;33.38;101474.97;7283546;19;153012;-63
2022/04/18 05:54:47;;;;;;;;;;;;;;;22.33;33.74;101479.47;7280497;19;153626;-61
2022/04/18 05:57:14;;;;;;;;;;;;;;;22.36;33.39;101481.66;7288573;19;151920;-65
2022/04/18 05:59:40;;;;;;;;;;;;;;;22.36;33.78;101479.69;7282557;19;152112;-61
2022/04/18 06:02:07;;;;;;;;;;;;;;;22.41;33.49;101479.59;7282950;19;151562;-63
2022/04/18 06:04:34;;;;;;;;;;;;;;;22.42;33.43;101489.72;7281017;19;154060;-61
2022/04/18 06:07:00;;;;;;;;;;;;;;;22.45;33.70;101494.72;7281633;19;153223;-65
2022/04/18 06:09:27;;;;;;;;;;;;;;;22.46;33.42;101487.97;7283204;19;152225;-64
2022/04/18 06:11:53;;;;;;;;;;;;;;;22.47;33.56;101494.44;7282834;19;152930;-62
2022/04/18 06:14:20;;;;;;;;;;;;;;;22.47;33.60;101502.88;7278022;19;153209;-64
2022/04/18 06:16:47;;;;;;;;;;;;;;;22.48;33.89;101498.94;7286477;19;151841;-65
2022/04/18 06:19:14;;;;;;;;;;;;;;;22.52;33.69;101505.63;7280898;19;154177;-69
2022/04/18 06:21:40;;;;;;;;;;;;;;;22.59;33.80;101515.31;7284215;19;151993;-68
2022/04/18 06:24:07;;;;;;;;;;;;;;;22.59;33.54;101511.66;7281151;19;152626;-67
2022/04/18 06:26:34;;;;;;;;;;;;;;;22.58;33.86;101518.44;7278743;19;153200;-61
2022/04/18 06:29:00;;;;;;;;;;;;;;;22.62;33.78;101523.16;7282031;19;152073;-64
2022/04/18 06:31:27;;;;;;;;;;;;;;;22.66;33.52;101526.22;7281718;19;152744;-64
2022/04/18 06:33:54;;;;;;;;;;;;;;;22.62;33.86;101519.53;7278340;19;154320;-65
2022/04/18 06:36:21;;;;;;;;;;;;;;;22.59;33.93;101518.13;7283096;19;151456;-64
2022/04/18 06:38:47;;;;;;;;;;;;;;;22.66;33.78;101529.03;7289013;19;153697;-65
2022/04/18 06:41:14;;;;;;;;;;;;;;;22.69;33.86;101522.75;7282158;19;152226;-62
2022/04/18 06:43:41;;;;;;;;;;;;;;;22.70;33.81;101532.09;7280432;19;154142;-64
2022/04/18 06:46:08;;;;;;;;;;;;;;;22.72;34.01;101526.97;7284995;19;152287;-65
2022/04/18 06:48:35;;;;;;;;;;;;;;;22.72;33.99;101521.31;7280052;19;151637;-65
2022/04/18 06:51:02;;;;;;;;;;;;;;;22.75;33.97;101527.19;7281881;19;152667;-67
2022/04/18 06:53:28;;;;;;;;;;;;;;;22.77;33.99;101530.53;7279521;19;153479;-63
2022/04/18 06:58:40;;;;;;;;;;;;;;;22.80;33.98;101526.28;7281456;19;153527;-65
2022/04/18 07:01:07;;;;;;;;;;;;;;;22.83;34.11;101522.81;7288218;19;153308;-62
2022/04/18 07:03:34;;;;;;;;;;;;;;;22.84;33.86;101530.97;7281950;19;152502;-66
2022/04/18 07:06:01;;;;;;;;;;;;;;;22.86;33.60;101525.00;7279095;19;154129;-65
2022/04/18 07:08:28;;;;;;;;;;;;;;;;;;7281349;19;152221;-65
2022/04/18 07:10:55;;;;;;;;;;;;;;;22.91;33.58;101530.56;7277586;19;180037;-65
2022/04/18 07:13:21;;;;;;;;;;;;;;;22.92;33.85;101535.06;7277985;19;153664;-65
2022/04/18 07:15:51;;;;;;;;;;;;;;;22.94;34.02;101533.59;7275858;19;151809;-65
2022/04/18 07:18:18;;;;;;;;;;;;;;;22.96;33.70;101536.09;7276599;19;152962;-64
2022/04/18 07:20:45;;;;;;;;;;;;;;;22.95;33.48;101534.41;7279066;19;153806;-64
2022/04/18 07:23:12;;;;;;;;;;;;;;;22.97;33.96;101534.97;7288529;19;152143;-66
2022/04/18 07:25:39;;;;;;;;;;;;;;;22.95;33.63;101537.25;7276791;19;153603;-62
2022/04/18 07:28:06;;;;;;;;;;;;;;;22.96;33.49;101538.91;7280614;19;152092;-63
2022/04/18 07:30:32;;;;;;;;;;;;;;;22.96;33.45;101527.66;7281200;19;152728;-63
2022/04/18 07:32:59;;;;;;;;;;;;;;;22.94;33.66;101536.41;7277761;19;154626;-64
2022/04/18 07:35:26;;;;;;;;;;;;;;;22.94;33.64;101535.59;7280735;19;152309;-64
2022/04/18 07:40:38;;;;;;;;;;;;;;;22.92;33.72;101549.13;7279249;19;153959;-65
2022/04/18 07:43:08;;;;;;;;;;;;;;;22.94;33.74;101538.41;7279570;19;151942;-62
2022/04/18 07:45:37;;;;;;;;;;;;;;;22.92;33.36;101543.50;7286245;19;153332;-65
2022/04/18 07:48:08;;;;;;;;;;;;;;;22.91;33.53;101539.00;7277093;19;152804;-64
2022/04/18 07:53:20;;;;;;;;;;;;;;;22.87;33.68;101541.63;7276913;19;154635;-62
2022/04/18 07:55:48;;;;;;;;;;;;;;;22.87;33.20;101549.22;7278878;19;151964;-63
2022/04/18 07:58:14;;;;;;;;;;;;;;;22.86;33.54;101550.38;7278372;19;153406;-63
2022/04/18 08:00:41;;;;;;;;;;;;;;;22.84;33.13;101553.53;7278702;19;151953;-69
2022/04/18 08:03:07;;;;;;;;;;;;;;;22.84;33.26;101544.22;7279388;19;151688;-63
2022/04/18 08:05:34;;;;;;;;;;;;;;;22.80;33.44;101548.81;7280750;19;153480;-63
2022/04/18 08:08:01;;;;;;;;;;;;;;;22.81;33.40;101554.13;7286704;19;153332;-62
2022/04/18 08:10:29;;;;;;;;;;;;;;;22.80;33.00;101548.81;7278939;19;152990;-63
2022/04/18 08:12:56;;;;;;;;;;;;;;;22.78;33.22;101551.94;7275248;19;153561;-66
2022/04/18 08:15:22;;;;;;;;;;;;;;;22.74;33.05;101541.59;7277453;19;152380;-65
2022/04/18 08:17:49;;;;;;;;;;;;;;;22.76;33.36;101554.22;7274918;19;153493;-64
2022/04/18 08:20:16;;;;;;;;;;;;;;;22.75;33.28;101549.75;7276341;19;154289;-67
2022/04/18 08:22:42;;;;;;;;;;;;;;;22.76;33.22;101553.41;7279574;19;151871;-63
2022/04/18 08:25:09;;;;;;;;;;;;;;;22.76;33.18;101557.03;7276390;19;153592;-64
2022/04/18 08:27:37;;;;;;;;;;;;;;;22.73;33.37;101556.81;7285982;19;153396;-63
2022/04/18 08:30:06;;;;;;;;;;;;;;;22.84;33.41;101559.16;7280919;19;153731;-61
2022/04/18 08:32:37;;;;;;;;;;;;;;;22.91;33.13;101558.75;7285878;19;154025;-62
2022/04/18 08:35:05;;;;;;;;;;;;;;;22.97;33.47;101563.16;7284748;19;152163;-63
2022/04/18 08:37:34;;;;;;;;;;;;;;;23.05;33.88;101560.44;7286965;19;153363;-62
2022/04/18 08:40:04;;;;;;;;;;;;;;;23.13;33.54;101558.03;7285109;19;153207;-65
2022/04/18 08:42:35;;;;;;;;;;;;;;;23.08;32.99;101552.53;7285068;19;152052;-65
2022/04/18 08:45:04;;;;;;;;;;;;;;;23.01;33.21;101565.03;7286419;19;152455;-61
2022/04/18 08:53:02;;;;;;;;;;;;;;;22.99;32.86;101553.22;7283671;19;153368;-62
2022/04/18 08:55:29;;;;;;;;;;;;;;;23.00;33.15;101554.06;7281023;19;151844;-60
2022/04/18 08:57:56;;;;;;;;;;;;;;;23.02;32.96;101557.41;7284414;19;152575;-65
2022/04/18 09:00:23;;;;;;;;;;;;;;;23.03;32.84;101559.91;7282423;19;155006;-62
2022/04/18 09:02:50;;;;;;;;;;;;;;;23.04;32.87;101557.91;7284443;19;151718;-65
2022/04/18 09:05:17;;;;;;;;;;;;;;;23.07;33.07;101565.78;7285496;19;152966;-65
2022/04/18 09:07:44;;;;;;;;;;;;;;;23.09;33.17;101562.63;7283027;19;153777;-62
2022/04/18 09:10:11;;;;;;;;;;;;;;;23.11;32.89;101563.16;7289082;19;152239;-60
2022/04/18 09:12:44;;;;;;;;;;;;;;;23.13;32.87;101553.25;7290856;19;153581;-63
2022/04/18 09:15:12;;;;;;;;;;;;;;;23.12;33.01;101562.88;7280236;19;152488;-64
2022/04/18 09:17:38;;;;;;;;;;;;;;;23.13;33.14;101558.88;7283638;19;153030;-65
2022/04/18 09:20:10;;;;;;;;;;;;;;;23.17;32.91;101554.28;7279683;19;153424;-63
2022/04/18 09:22:42;;;;;;;;;;;;;;;23.23;33.04;101555.88;7285737;19;152110;-64
2022/04/18 09:25:26;;;;;;;;;;;;;;;23.28;33.36;101563.38;7282540;19;153260;-64
2022/04/18 09:27:54;;;;;;;;;;;;;;;23.30;33.04;101567.59;7287399;19;153920;-64
2022/04/18 09:30:22;;;;;;;;;;;;;;;23.32;33.05;101559.63;7289276;19;151895;-64
2022/04/18 09:33:01;;;;;;;;;;;;;;;23.33;33.26;101557.66;7288139;19;153125;-62
2022/04/18 09:35:29;;;;;;;;;;;;;;;23.33;33.41;101554.84;7295219;19;153130;-64
2022/04/18 09:38:00;;;;;;;;;;;;;;;23.37;33.28;101555.88;7286797;19;153127;-62
2022/04/18 09:40:30;;;;;;;;;;;;;;;23.37;33.24;101553.88;7285699;19;153560;-63
2022/04/18 09:42:57;;;;;;;;;;;;;;;23.36;33.02;101557.84;7287313;19;152045;-60
2022/04/18 09:45:30;;;;;;;;;;;;;;;23.39;33.42;101559.22;7292103;19;153501;-61
2022/04/18 09:48:01;;;;;;;;;;;;;;;23.37;33.19;101553.88;7290510;19;153386;-61
2022/04/18 09:53:17;;;;;;;;;;;;;;;23.39;33.28;101548.75;7289703;19;153953;-64
2022/04/18 09:55:45;;;;;;;;;;;;;;;23.37;33.22;101544.59;7285317;19;153208;-63
2022/04/18 09:58:12;;;;;;;;;;;;;;;23.36;33.45;101549.38;7297004;19;151906;-60
2022/04/18 10:01:00;;;;;;;;;;;;;;;23.39;33.41;101548.75;7286483;19;153127;-64
2022/04/18 10:03:31;;;;;;;;;;;;;;;23.41;33.51;101543.66;7292908;19;152328;-61
2022/04/18 10:05:58;;;;;;;;;;;;;;;23.40;33.43;101541.13;7287328;19;152623;-62
2022/04/18 10:08:25;;;;;;;;;;;;;;;23.41;33.38;101540.81;7291000;19;152817;-63
2022/04/18 10:10:52;;;;;;;;;;;;;;;23.40;33.25;101529.84;7291658;19;151821;-59
2022/04/18 10:13:20;;;;;;;;;;;;;;;23.41;33.15;101528.72;7287638;19;154319;-63
2022/04/18 10:15:48;;;;;;;;;;;;;;;23.40;33.08;101533.50;7283574;19;154347;-63
2022/04/18 10:18:15;;;;;;;;;;;;;;;23.42;32.99;101534.03;7287679;19;154106;-63
2022/04/18 10:20:42;;;;;;;;;;;;;;;23.41;32.92;101532.38;7294718;19;154462;-62
2022/04/18 10:23:27;;;;;;;;;;;;;;;23.42;32.72;101531.22;7284972;19;151869;-63
2022/04/18 10:26:13;;;;;;;;;;;;;;;23.42;32.99;101527.56;7292095;19;151616;-59
2022/04/18 10:28:42;;;;;;;;;;;;;;;23.43;32.65;101532.91;7285524;19;154024;-65
2022/04/18 10:31:11;;;;;;;;;;;;;;;23.40;32.49;101527.88;7287583;19;152031;-64
2022/04/18 10:33:37;;;;;;;;;;;;;;;23.41;32.75;101520.25;7289337;19;153591;-62
2022/04/18 10:36:05;;;;;;;;;;;;;;;23.39;32.90;101517.72;7287328;19;153198;-62
2022/04/18 10:38:41;;;;;;;;;;;;;;;23.42;32.85;101521.94;7287393;19;152010;-63
2022/04/18 10:41:31;;;;;;;;;;;;;;;23.41;32.88;101525.88;7291337;19;153908;-60
2022/04/18 10:43:58;;;;;;;;;;;;;;;23.42;32.72;101517.13;7286387;19;151959;-62
2022/04/18 10:46:24;;;;;;;;;;;;;;;23.41;32.49;101523.91;7291142;19;151659;-59
2022/04/18 10:48:56;;;;;;;;;;;;;;;23.42;32.41;101519.09;7289595;19;153436;-61
2022/04/18 10:51:38;;;;;;;;;;;;;;;23.41;32.35;101520.25;7289763;19;152661;-61
2022/04/18 10:54:09;;;;;;;;;;;;;;;23.40;32.52;101516.59;7287508;19;154848;-68
2022/04/18 10:56:46;;;;;;;;;;;;;;;23.42;32.57;101519.09;7287909;19;154854;-63
2022/04/18 10:59:14;;;;;;;;;;;;;;;23.42;32.59;101510.66;7293644;19;152269;-63
2022/04/18 11:01:42;;;;;;;;;;;;;;;23.40;32.92;101507.28;7290347;19;153672;-62
2022/04/18 11:04:10;;;;;;;;;;;;;;;23.42;32.73;101508.66;7297965;19;155238;-63
2022/04/18 11:06:37;;;;;;;;;;;;;;;23.39;32.90;101508.47;7293022;19;153531;-62
2022/04/18 11:09:08;;;;;;;;;;;;;;;23.37;32.29;101505.94;7289853;19;155246;-66
2022/04/18 11:11:35;;;;;;;;;;;;;;;23.38;32.06;101509.59;7285243;19;152530;-65
2022/04/18 11:14:12;;;;;;;;;;;;;;;23.37;32.34;101510.75;7285186;19;153260;-60
2022/04/18 11:16:42;;;;;;;;;;;;;;;23.35;32.47;101504.56;7289082;19;152858;-60
2022/04/18 11:19:15;;;;;;;;;;;;;;;23.30;32.44;101505.56;7289466;19;152036;-61
2022/04/18 11:24:40;;;;;;;;;;;;;;;23.25;31.92;101497.19;7286874;19;154172;-65
2022/04/18 11:27:10;;;;;;;;;;;;;;;23.23;32.33;101502.28;7297366;19;151980;-62
2022/04/18 11:29:38;;;;;;;;;;;;;;;23.21;32.15;101504.59;7286858;19;153512;-61
2022/04/18 11:32:05;;;;;;;;;;;;;;;23.16;32.33;101504.72;7288177;19;152003;-60
2022/04/18 11:34:33;;;;;;;;;;;;;;;23.14;32.26;101500.50;7287038;19;152635;-63
2022/04/18 11:37:01;;;;;;;;;;;;;;;23.16;32.04;101501.06;7288143;19;154690;-65
2022/04/18 11:39:45;;;;;;;;;;;;;;;23.14;31.88;101495.72;7289656;19;152218;-64
2022/04/18 11:42:15;;;;;;;;;;;;;;;23.14;31.92;101500.50;7291786;19;156255;-59
2022/04/18 11:44:43;;;;;;;;;;;;;;;23.11;32.07;101501.16;7289261;19;154141;-64
2022/04/18 11:47:12;;;;;;;;;;;;;;;23.10;32.18;101493.84;7288528;19;151635;-59
2022/04/18 11:49:39;;;;;;;;;;;;;;;23.09;32.25;101501.44;7296031;19;154356;-62
2022/04/18 11:52:06;;;;;;;;;;;;;;;23.09;32.17;101500.59;7289433;19;151503;-59
2022/04/18 11:54:33;;;;;;;;;;;;;;;23.08;32.06;101496.94;7287234;19;151793;-66
2022/04/18 11:57:01;;;;;;;;;;;;;;;23.08;31.72;101490.50;7282157;19;153358;-66
2022/04/18 11:59:28;;;;;;;;;;;;;;;23.07;31.94;101484.03;7279495;19;151916;-64
2022/04/18 12:07:26;;;;;;;;;;;;;;;23.00;31.60;101481.63;7286397;19;152181;-61
2022/04/18 12:09:53;;;;;;;;;;;;;;;22.98;31.59;101483.09;7285756;19;153318;-63
2022/04/18 12:12:30;;;;;;;;;;;;;;;22.97;31.26;101485.06;7292229;19;152999;-64
2022/04/18 12:15:00;;;;;;;;;;;;;;;22.95;31.22;101487.34;7286595;19;151926;-64
2022/04/18 12:17:27;;;;;;;;;;;;;;;22.93;31.23;101481.22;7283239;19;153271;-64
2022/04/18 12:19:54;;;;;;;;;;;;;;;22.93;31.38;101480.38;7287823;19;151647;-65
2022/04/18 12:22:24;;;;;;;;;;;;;;;22.91;31.40;101479.81;7286921;19;153344;-66
2022/04/18 12:24:51;;;;;;;;;;;;;;;22.90;31.68;101478.16;7284103;19;154269;-64
2022/04/18 12:27:36;;;;;;;;;;;;;;;22.89;31.61;101465.22;7285941;19;152436;-63
2022/04/18 12:30:03;;;;;;;;;;;;;;;22.92;31.18;101467.41;7287200;19;152546;-63
2022/04/18 12:32:38;;;;;;;;;;;;;;;22.88;31.55;101458.75;7284760;19;155168;-60
2022/04/18 12:35:05;;;;;;;;;;;;;;;22.86;31.83;101463.03;7291941;19;151820;-66
2022/04/18 12:37:32;;;;;;;;;;;;;;;22.85;31.62;101464.19;7284424;19;155115;-66
2022/04/18 12:40:16;;;;;;;;;;;;;;;22.84;31.65;101454.06;7285486;19;151748;-62
2022/04/18 12:42:50;;;;;;;;;;;;;;;22.82;31.16;101456.34;7286913;19;152625;-63
2022/04/18 12:45:17;;;;;;;;;;;;;;;22.82;31.16;101457.19;7284922;19;153567;-65
2022/04/18 12:47:43;;;;;;;;;;;;;;;22.81;31.40;101455.50;7286232;19;151891;-65
2022/04/18 12:50:16;;;;;;;;;;;;;;;22.80;31.48;101465.13;7285788;19;152577;-62
2022/04/18 12:52:46;;;;;;;;;;;;;;;22.80;31.55;101458.66;7285617;19;153557;-62
2022/04/18 12:55:13;;;;;;;;;;;;;;;22.80;31.25;101444.56;7292775;19;152976;-64
2022/04/18 12:57:40;;;;;;;;;;;;;;;22.80;31.14;101436.09;7282702;19;154173;-67
2022/04/18 13:00:14;;;;;;;;;;;;;;;22.78;31.64;101436.41;7285620;19;152220;-66
2022/04/18 13:03:01;;;;;;;;;;;;;;;22.77;31.57;101439.53;7284626;19;153659;-63
2022/04/18 13:05:28;;;;;;;;;;;;;;;22.77;31.66;101443.19;7285055;19;154223;-65